Time;durP1;ratioP1;P1;durP2;ratioP2;P2;SDS_P1;SDS_P2;PMS_P1;PMS_P2;Temp;Humidity;BMP_temperature;BMP_pressure;BME280_temperature;BME280_humidity;BME280_pressure;Samples;Min_cycle;Max_cycle;Signal;HPM_P1;HPM_P2
2022/05/16 00:00:16;;;;;;;3.35;2.22;;;;;;;23.85;42.75;101528.41;5083144;28;20641;-58
2022/05/16 00:02:42;;;;;;;4.65;1.50;;;;;;;23.84;42.88;101526.72;5087713;28;20086;-59
2022/05/16 00:05:09;;;;;;;5.45;2.08;;;;;;;23.85;42.69;101528.41;5088333;28;20040;-59
2022/05/16 00:07:36;;;;;;;5.82;2.45;;;;;;;23.83;42.68;101525.00;5080308;28;20669;-59
2022/05/16 00:10:04;;;;;;;5.07;2.15;;;;;;;23.82;42.93;101526.03;5081384;28;20143;-59
2022/05/16 00:12:32;;;;;;;4.85;1.80;;;;;;;23.81;42.54;101523.50;5084358;28;20760;-59
2022/05/16 00:14:58;;;;;;;4.28;2.30;;;;;;;23.81;43.10;101512.69;5084465;28;20044;-59
2022/05/16 00:17:25;;;;;;;4.20;1.83;;;;;;;23.80;42.66;101506.44;5078662;28;20058;-60
2022/05/16 00:19:51;;;;;;;7.07;1.90;;;;;;;23.80;42.94;101505.56;5061108;28;20079;-60
2022/05/16 00:22:18;;;;;;;6.00;1.98;;;;;;;23.79;42.67;101506.59;5080359;28;20052;-59
2022/05/16 00:24:44;;;;;;;7.00;2.25;;;;;;;23.79;42.74;101503.88;5086447;28;20036;-59
2022/05/16 00:27:12;;;;;;;3.75;1.98;;;;;;;23.79;42.84;101509.28;5082066;28;20134;-58
2022/05/16 00:29:39;;;;;;;3.75;1.80;;;;;;;23.77;42.71;101506.78;5082617;28;20050;-59
2022/05/16 00:32:06;;;;;;;4.70;1.95;;;;;;;23.77;43.07;101503.22;5081864;28;20040;-59
2022/05/16 00:34:33;;;;;;;5.47;2.42;;;;;;;23.76;42.57;101501.50;5082885;28;20040;-61
2022/05/16 00:37:00;;;;;;;2.92;1.55;;;;;;;23.75;42.72;101495.25;5080932;28;20139;-59
2022/05/16 00:39:26;;;;;;;3.72;1.80;;;;;;;23.75;42.97;101491.72;5083688;28;20040;-59
2022/05/16 00:41:53;;;;;;;3.45;1.77;;;;;;;23.73;43.12;101489.19;5084167;28;20066;-60
2022/05/16 00:44:20;;;;;;;4.75;1.80;;;;;;;23.73;43.16;101491.91;5083609;28;20047;-59
2022/05/16 00:46:48;;;;;;;2.92;1.58;;;;;;;23.72;42.84;101492.94;5084811;28;20040;-59
2022/05/16 00:49:37;;;;;;;4.70;2.00;;;;;;;23.70;43.23;101489.53;5082305;28;20046;-61
2022/05/16 00:52:19;;;;;;;3.03;1.60;;;;;;;23.70;42.90;101486.00;5083116;28;20052;-59
2022/05/16 00:54:50;;;;;;;2.88;1.50;;;;;;;23.70;42.75;101489.53;5082206;28;20054;-59
2022/05/16 00:57:24;;;;;;;4.70;1.75;;;;;;;23.69;42.94;101485.16;5081302;28;20040;-61
2022/05/16 01:00:03;;;;;;;4.10;1.92;;;;;;;23.68;43.45;101479.91;5078861;28;20630;-60
2022/05/16 01:05:18;;;;;;;4.60;1.88;;;;;;;23.66;43.04;101474.66;5085180;28;20411;-58
2022/05/16 01:07:46;;;;;;;3.55;1.67;;;;;;;23.65;43.42;101467.53;5082535;28;20378;-59
2022/05/16 01:10:16;;;;;;;4.10;1.83;;;;;;;23.64;43.05;101465.88;5082085;28;20123;-60
2022/05/16 01:12:46;;;;;;;4.43;1.90;;;;;;;23.63;43.33;101464.16;5079483;28;20896;-60
2022/05/16 01:15:34;;;;;;;4.60;1.95;;;;;;;23.63;43.43;101466.88;5082361;28;20036;-60
2022/05/16 01:18:01;;;;;;;2.97;1.55;;;;;;;23.62;42.96;101468.72;5078824;28;20134;-60
2022/05/16 01:20:46;;;;;;;3.33;1.85;;;;;;;23.62;43.26;101460.59;5063665;28;20064;-60
2022/05/16 01:23:16;;;;;;;5.13;1.55;;;;;;;23.61;43.51;101458.09;5080847;28;20043;-60
2022/05/16 01:25:43;;;;;;;4.88;1.95;;;;;;;23.60;43.59;101451.00;5080306;28;20048;-61
2022/05/16 01:28:09;;;;;;;4.22;2.10;;;;;;;23.59;43.30;101449.28;5083024;28;20044;-60
2022/05/16 01:30:41;;;;;;;4.32;1.70;;;;;;;23.58;43.71;101450.31;5083071;28;20056;-59
2022/05/16 01:33:08;;;;;;;3.00;1.58;;;;;;;23.57;43.40;101441.34;5064797;28;20139;-59
2022/05/16 01:35:34;;;;;;;4.43;1.88;;;;;;;23.56;43.79;101442.38;5081589;28;20052;-60
2022/05/16 01:38:19;;;;;;;10.32;1.73;;;;;;;23.56;43.33;101434.28;5078130;28;20537;-59
2022/05/16 01:40:47;;;;;;;4.28;1.50;;;;;;;23.55;43.72;101429.00;5083718;28;20146;-59
2022/05/16 01:43:14;;;;;;;4.70;1.98;;;;;;;23.54;44.03;101424.63;5083160;28;20123;-59
2022/05/16 01:45:43;;;;;;;4.40;2.00;;;;;;;23.53;43.88;101417.53;5063108;28;20191;-59
2022/05/16 01:48:11;;;;;;;5.05;1.85;;;;;;;23.52;43.98;101415.84;5081730;28;20139;-60
2022/05/16 01:50:40;;;;;;;6.30;1.90;;;;;;;23.51;43.48;101420.41;5081554;28;20052;-60
2022/05/16 01:53:07;;;;;;;4.65;1.98;;;;;;;23.49;43.49;101425.16;5083091;28;20048;-60
2022/05/16 01:55:34;;;;;;;4.85;2.00;;;;;;;23.49;43.52;101425.16;5080462;28;20040;-60
2022/05/16 01:58:00;;;;;;;2.75;1.50;;;;;;;23.48;43.83;101415.38;5080385;28;20054;-59
2022/05/16 02:00:27;;;;;;;5.82;2.13;;;;;;;23.47;43.72;101402.84;5082377;28;20126;-60
2022/05/16 02:02:54;;;;;;;3.63;1.83;;;;;;;23.48;43.81;101403.66;5082985;28;20036;-60
2022/05/16 02:05:22;;;;;;;7.28;1.90;;;;;;;23.46;43.66;101403.03;5081592;28;20369;-59
2022/05/16 02:07:50;;;;;;;3.35;1.60;;;;;;;23.46;43.77;101403.03;5078981;28;20048;-61
2022/05/16 02:10:19;;;;;;;4.05;1.75;;;;;;;23.45;43.59;101406.75;5083237;28;20105;-60
2022/05/16 02:12:46;;;;;;;4.22;1.75;;;;;;;23.44;44.04;101402.34;5082186;28;20071;-61
2022/05/16 02:15:17;;;;;;;3.38;2.00;;;;;;;23.43;43.54;101404.19;5064610;28;20518;-60
2022/05/16 02:17:45;;;;;;;5.00;1.73;;;;;;;23.42;43.76;101402.53;5079718;28;20048;-59
2022/05/16 02:20:13;;;;;;;3.45;1.75;;;;;;;23.41;43.54;101408.97;5080541;28;20151;-60
2022/05/16 02:25:25;;;;;;;3.95;1.48;;;;;;;23.40;43.40;101405.41;5079538;28;20418;-60
2022/05/16 02:27:52;;;;;;;3.95;1.42;;;;;;;23.40;43.47;101410.81;5079548;28;20359;-60
2022/05/16 02:30:23;;;;;;;5.30;2.22;;;;;;;23.38;44.06;101399.31;5083692;28;20455;-59
2022/05/16 02:32:50;;;;;;;4.88;1.77;;;;;;;23.39;44.10;101383.94;5086655;28;20052;-60
2022/05/16 02:35:17;;;;;;;4.07;1.60;;;;;;;23.38;43.71;101384.97;5084824;28;20044;-61
2022/05/16 02:37:44;;;;;;;8.02;2.10;;;;;;;23.38;43.79;101393.06;5084014;28;20051;-60
2022/05/16 02:40:12;;;;;;;4.55;2.03;;;;;;;23.37;43.98;101384.13;5083819;28;20055;-59
2022/05/16 02:42:38;;;;;;;4.53;1.85;;;;;;;23.37;43.64;101383.28;5087157;28;20048;-60
2022/05/16 02:45:05;;;;;;;3.50;1.75;;;;;;;23.37;43.47;101385.97;5084783;28;20061;-60
2022/05/16 02:47:32;;;;;;;3.03;1.45;;;;;;;23.36;43.98;101379.72;5082612;28;20135;-61
2022/05/16 02:49:59;;;;;;;3.70;1.58;;;;;;;23.36;43.94;101378.91;5081334;28;20067;-59
2022/05/16 02:52:25;;;;;;;5.18;2.00;;;;;;;23.35;43.99;101377.19;5085231;28;20082;-61
2022/05/16 02:54:52;;;;;;;4.30;1.80;;;;;;;23.34;44.06;101368.22;5086332;28;20155;-61
2022/05/16 02:57:19;;;;;;;4.80;2.20;;;;;;;23.35;43.61;101366.38;5082452;28;20068;-59
2022/05/16 02:59:45;;;;;;;3.67;1.77;;;;;;;23.34;43.69;101370.09;5086975;28;20051;-59
2022/05/16 03:02:12;;;;;;;3.70;1.17;;;;;;;23.34;43.80;101361.97;5088075;28;20474;-60
2022/05/16 03:04:38;;;;;;;3.33;1.80;;;;;;;23.33;44.41;101361.16;5085298;28;20174;-60
2022/05/16 03:07:06;;;;;;;5.43;1.88;;;;;;;23.33;43.95;101365.72;5082353;28;20135;-59
2022/05/16 03:09:33;;;;;;;4.45;1.80;;;;;;;23.32;44.06;101358.63;5085160;28;20042;-60
2022/05/16 03:12:00;;;;;;;4.72;2.17;;;;;;;23.30;44.31;101350.66;5084058;28;20052;-59
2022/05/16 03:14:27;;;;;;;3.35;1.88;;;;;;;23.30;44.33;101356.06;5083968;28;20311;-60
2022/05/16 03:16:54;;;;;;;5.88;1.42;;;;;;;23.30;44.02;101350.66;5083953;28;20128;-60
2022/05/16 03:19:21;;;;;;;5.97;1.95;;;;;;;23.30;44.30;101349.81;5084775;28;20142;-60
2022/05/16 03:21:47;;;;;;;4.40;1.83;;;;;;;23.29;44.52;101350.84;5083674;28;20044;-59
2022/05/16 03:24:14;;;;;;;3.00;1.58;;;;;;;23.29;44.51;101349.00;5083395;28;20044;-60
2022/05/16 03:26:41;;;;;;;5.10;2.00;;;;;;;23.28;44.30;101344.59;5085834;28;20044;-60
2022/05/16 03:29:10;;;;;;;4.93;2.17;;;;;;;23.28;44.13;101346.47;5085573;28;20170;-59
2022/05/16 03:31:36;;;;;;;4.70;2.10;;;;;;;23.27;44.45;101345.59;5081758;28;20048;-59
2022/05/16 03:34:03;;;;;;;4.53;1.80;;;;;;;23.27;44.33;101339.34;5085059;28;20040;-60
2022/05/16 03:36:30;;;;;;;3.80;1.60;;;;;;;23.25;44.23;101342.25;5084500;28;20059;-59
2022/05/16 03:41:41;;;;;;;4.18;1.77;;;;;;;23.26;44.09;101330.41;5084270;28;20127;-60
2022/05/16 03:44:08;;;;;;;3.55;1.42;;;;;;;23.25;44.40;101342.25;5081886;28;20052;-59
2022/05/16 03:46:35;;;;;;;6.30;1.63;;;;;;;23.24;44.16;101337.03;5085055;28;20080;-59
2022/05/16 03:49:01;;;;;;;4.03;1.80;;;;;;;23.24;44.33;101334.31;5081029;28;20070;-59
2022/05/16 03:51:28;;;;;;;2.88;1.65;;;;;;;23.25;44.49;101341.41;5088271;28;20131;-60
2022/05/16 03:53:55;;;;;;;3.33;1.60;;;;;;;23.22;44.19;101331.78;5083112;28;20127;-59
2022/05/16 03:56:24;;;;;;;5.20;1.80;;;;;;;23.23;44.54;101335.31;5086648;28;20036;-59
2022/05/16 03:58:52;;;;;;;6.88;1.60;;;;;;;23.23;44.84;101329.91;5082137;28;20044;-60
2022/05/16 04:01:19;;;;;;;4.97;1.60;;;;;;;23.22;44.63;101344.47;5082659;28;20338;-59
2022/05/16 04:03:46;;;;;;;9.00;1.75;;;;;;;23.22;44.48;101344.47;5082105;28;20051;-60
2022/05/16 04:06:16;;;;;;;5.80;1.60;;;;;;;23.23;44.74;101343.44;5084268;28;20323;-59
2022/05/16 04:08:43;;;;;;;2.95;1.70;;;;;;;23.21;44.30;101338.22;5090816;28;20050;-60
2022/05/16 04:11:11;;;;;;;4.90;2.25;;;;;;;23.22;44.57;101339.03;5086560;28;20048;-61
2022/05/16 04:13:38;;;;;;;4.18;2.33;;;;;;;23.21;44.36;101334.66;5084769;28;20307;-61
2022/05/16 04:16:05;;;;;;;5.18;2.58;;;;;;;23.20;44.24;101336.53;5084564;28;20032;-61
2022/05/16 04:18:32;;;;;;;5.40;2.55;;;;;;;23.22;44.55;101344.47;5082622;28;20044;-59
2022/05/16 04:20:59;;;;;;;7.70;2.40;;;;;;;23.20;44.12;101341.94;5090172;28;20385;-61
2022/05/16 04:23:26;;;;;;;8.38;3.20;;;;;;;23.20;44.31;101344.66;5089918;28;20044;-58
2022/05/16 04:25:52;;;;;;;10.55;2.88;;;;;;;23.20;44.29;101351.91;5089314;28;20051;-59
2022/05/16 04:28:19;;;;;;;9.05;2.88;;;;;;;23.20;44.13;101338.41;5091164;28;20054;-60
2022/05/16 04:30:45;;;;;;;8.50;4.20;;;;;;;23.19;44.29;101351.06;5069664;28;20154;-60
2022/05/16 04:33:12;;;;;;;9.10;3.70;;;;;;;23.21;44.48;101353.59;5087183;28;20040;-59
2022/05/16 04:35:39;;;;;;;7.95;4.40;;;;;;;23.20;44.34;101351.91;5088840;28;20325;-59
2022/05/16 04:38:05;;;;;;;8.98;4.68;;;;;;;23.21;44.27;101354.44;5090046;28;20445;-60
2022/05/16 04:40:33;;;;;;;8.18;4.00;;;;;;;23.22;44.77;101356.13;5088723;28;20044;-60
2022/05/16 04:43:00;;;;;;;8.10;4.75;;;;;;;23.23;44.48;101346.13;5090576;28;20511;-59
2022/05/16 04:45:29;;;;;;;9.77;5.00;;;;;;;23.23;44.52;101352.38;5090945;28;20373;-59
2022/05/16 04:47:59;;;;;;;9.00;5.35;;;;;;;23.24;44.42;101347.84;5088616;28;20040;-61
2022/05/16 04:50:32;;;;;;;9.40;5.22;;;;;;;23.24;44.46;101343.28;5086014;28;20048;-59
2022/05/16 04:53:00;;;;;;;9.77;5.13;;;;;;;23.23;44.04;101341.56;5090357;28;20126;-59
2022/05/16 04:55:28;;;;;;;11.88;5.10;;;;;;;23.25;44.27;101333.28;5090192;28;20320;-60
2022/05/16 04:57:57;;;;;;;7.93;4.78;;;;;;;23.25;43.98;101336.00;5083503;28;20051;-60
2022/05/16 05:00:25;;;;;;;8.77;5.53;;;;;;;23.24;44.09;101337.03;5089184;28;20393;-59
2022/05/16 05:02:52;;;;;;;8.80;5.75;;;;;;;23.25;43.97;101334.13;5084005;28;20066;-59
2022/05/16 05:05:21;;;;;;;8.68;5.68;;;;;;;23.27;43.87;101337.50;5087443;28;20047;-60
2022/05/16 05:07:48;;;;;;;10.50;5.70;;;;;;;23.29;43.72;101337.34;5089652;28;20049;-61
2022/05/16 05:15:54;;;;;;;8.73;4.88;;;;;;;23.32;43.61;101339.69;5088740;28;20036;-59
2022/05/16 05:18:21;;;;;;;10.07;5.80;;;;;;;23.33;42.95;101335.97;5083992;28;20056;-59
2022/05/16 05:20:47;;;;;;;8.93;5.22;;;;;;;23.34;43.38;101337.63;5088438;28;20395;-60
2022/05/16 05:23:14;;;;;;;11.15;5.70;;;;;;;23.35;43.83;101333.91;5083680;28;20163;-59
2022/05/16 05:25:40;;;;;;;10.95;5.45;;;;;;;23.35;43.24;101337.44;5086518;28;20040;-61
2022/05/16 05:28:07;;;;;;;12.13;5.47;;;;;;;23.37;43.20;101340.00;5090494;28;20066;-59
2022/05/16 05:30:33;;;;;;;11.55;5.25;;;;;;;23.37;42.91;101348.94;5090384;28;20047;-60
2022/05/16 05:33:00;;;;;;;9.95;5.03;;;;;;;23.36;43.58;101349.97;5086784;28;20146;-60
2022/05/16 05:35:29;;;;;;;9.23;4.78;;;;;;;23.38;43.22;101349.78;5068378;28;20052;-61
2022/05/16 05:37:56;;;;;;;10.00;5.13;;;;;;;23.38;43.44;101353.34;5085085;28;20547;-60
2022/05/16 05:40:23;;;;;;;11.93;5.68;;;;;;;23.38;43.01;101349.78;5087863;28;20362;-60
2022/05/16 05:42:50;;;;;;;11.52;5.60;;;;;;;23.39;43.30;101346.06;5085698;28;20127;-60
2022/05/16 05:45:17;;;;;;;8.55;5.03;;;;;;;23.39;43.30;101336.06;5089591;28;20598;-60
2022/05/16 05:47:44;;;;;;;13.23;5.38;;;;;;;23.39;43.02;101352.31;5085974;28;20040;-59
2022/05/16 05:50:11;;;;;;;9.43;5.18;;;;;;;23.40;43.29;101345.06;5086166;28;20044;-60
2022/05/16 05:52:38;;;;;;;8.23;5.13;;;;;;;23.40;42.86;101351.31;5084964;28;20130;-60
2022/05/16 05:55:05;;;;;;;10.20;4.88;;;;;;;23.40;43.00;101347.75;5089328;28;20051;-59
2022/05/16 05:57:32;;;;;;;9.02;5.75;;;;;;;23.42;43.08;101350.28;5086780;28;20148;-59
2022/05/16 05:59:59;;;;;;;13.88;5.10;;;;;;;23.42;43.09;101359.25;5088243;28;20076;-59
2022/05/16 06:02:26;;;;;;;11.13;5.25;;;;;;;23.42;42.81;101361.09;5090407;28;20048;-58
2022/05/16 06:04:52;;;;;;;9.38;5.38;;;;;;;23.41;43.01;101365.69;5091398;28;20044;-60
2022/05/16 06:07:19;;;;;;;9.63;4.90;;;;;;;23.43;43.09;101373.59;5093661;28;20040;-61
2022/05/16 06:09:45;;;;;;;9.32;4.88;;;;;;;23.44;42.63;101380.69;5091287;28;20084;-59
2022/05/16 06:12:12;;;;;;;7.75;4.50;;;;;;;23.43;43.14;101377.16;5092847;28;20044;-60
2022/05/16 06:14:43;;;;;;;9.52;4.45;;;;;;;23.43;43.15;101374.44;5093491;28;20143;-60
2022/05/16 06:17:11;;;;;;;10.60;5.35;;;;;;;23.44;43.29;101370.75;5092280;28;20047;-60
2022/05/16 06:19:38;;;;;;;8.90;5.25;;;;;;;23.44;43.27;101377.97;5092362;28;20066;-60
2022/05/16 06:22:05;;;;;;;10.65;5.53;;;;;;;23.44;43.14;101380.69;5091748;28;20059;-59
2022/05/16 06:27:17;;;;;;;7.45;4.40;;;;;;;23.43;42.48;101377.16;5091400;28;20309;-60
2022/05/16 06:29:44;;;;;;;10.18;5.55;;;;;;;23.44;42.96;101381.56;5092238;28;20134;-60
2022/05/16 06:32:10;;;;;;;8.65;4.65;;;;;;;23.42;42.90;101372.75;5088654;28;20334;-60
2022/05/16 06:34:37;;;;;;;7.78;4.38;;;;;;;23.43;43.24;101377.16;5092377;28;20068;-59
2022/05/16 06:37:04;;;;;;;7.80;4.57;;;;;;;23.43;42.84;101385.25;5089086;28;20133;-60
2022/05/16 06:39:30;;;;;;;7.43;4.75;;;;;;;23.43;42.88;101387.13;5090155;28;20603;-59
2022/05/16 06:41:57;;;;;;;7.32;4.50;;;;;;;23.42;43.29;101386.28;5092562;28;20108;-60
2022/05/16 06:44:23;;;;;;;10.35;5.28;;;;;;;23.43;42.89;101389.84;5091781;28;20058;-59
2022/05/16 06:46:50;;;;;;;8.05;4.68;;;;;;;23.44;43.09;101391.50;5091776;28;20583;-58
2022/05/16 06:49:16;;;;;;;9.23;5.00;;;;;;;23.43;42.91;101398.78;5091993;28;20062;-60
2022/05/16 06:51:43;;;;;;;7.38;4.03;;;;;;;23.44;43.21;101399.63;5091697;28;20143;-60
2022/05/16 06:54:10;;;;;;;7.32;4.10;;;;;;;23.44;43.15;101402.34;5093856;28;20364;-60
2022/05/16 06:56:36;;;;;;;7.38;4.93;;;;;;;23.45;43.38;101401.34;5092942;28;20040;-60
2022/05/16 06:59:03;;;;;;;7.70;4.30;;;;;;;23.45;43.08;101412.16;5093024;28;20331;-59
2022/05/16 07:01:29;;;;;;;8.57;4.47;;;;;;;23.44;42.96;101408.63;5089127;28;20045;-59
2022/05/16 07:03:56;;;;;;;5.50;3.95;;;;;;;23.44;43.47;101405.03;5092633;28;20424;-59
2022/05/16 07:06:23;;;;;;;6.95;3.85;;;;;;;23.44;43.03;101407.75;5086536;28;20047;-60
2022/05/16 07:08:49;;;;;;;7.55;3.92;;;;;;;23.45;43.27;101415.72;5091352;28;20048;-60
2022/05/16 07:11:16;;;;;;;6.80;4.10;;;;;;;23.44;43.40;101405.91;5092429;28;20051;-60
2022/05/16 07:13:42;;;;;;;6.72;4.00;;;;;;;23.44;43.36;101402.34;5086985;28;20095;-61
2022/05/16 07:16:09;;;;;;;9.00;4.35;;;;;;;23.44;42.97;101400.50;5085904;28;20058;-61
2022/05/16 07:18:35;;;;;;;6.97;3.60;;;;;;;23.45;43.15;101402.19;5091804;28;20066;-60
2022/05/16 07:21:04;;;;;;;7.90;3.70;;;;;;;23.45;43.14;101401.34;5092688;28;20134;-61
2022/05/16 07:23:31;;;;;;;7.25;3.97;;;;;;;23.45;43.08;101401.34;5089633;28;20043;-59
2022/05/16 07:28:42;;;;;;;11.10;4.38;;;;;;;23.45;43.21;101404.88;5092322;28;20331;-60
2022/05/16 07:31:11;;;;;;;7.85;4.00;;;;;;;23.45;43.01;101407.59;5089762;28;20055;-61
2022/05/16 07:33:38;;;;;;;13.15;4.53;;;;;;;23.45;43.22;101404.03;5092394;28;20044;-61
2022/05/16 07:36:05;;;;;;;9.93;4.28;;;;;;;23.46;43.29;101406.56;5088982;28;20131;-60
2022/05/16 07:38:32;;;;;;;11.73;4.32;;;;;;;23.46;43.64;101403.84;5092056;28;20713;-60
2022/05/16 07:40:58;;;;;;;10.00;4.63;;;;;;;23.48;43.17;101411.78;5092456;28;20040;-60
2022/05/16 07:43:26;;;;;;;12.77;4.18;;;;;;;23.47;43.18;101402.00;5090312;28;20146;-60
2022/05/16 07:45:52;;;;;;;8.40;3.65;;;;;;;23.49;43.26;101406.22;5091990;28;20127;-60
2022/05/16 07:48:19;;;;;;;8.77;3.95;;;;;;;23.49;43.57;101414.34;5091073;28;20101;-60
2022/05/16 07:50:48;;;;;;;6.97;3.85;;;;;;;23.49;43.71;101408.94;5091243;28;20044;-60
2022/05/16 07:53:15;;;;;;;11.05;3.88;;;;;;;23.49;43.40;101417.03;5088419;28;20125;-59
2022/05/16 07:56:00;;;;;;;10.18;4.07;;;;;;;23.50;43.47;101412.47;5089642;28;20335;-60
2022/05/16 07:58:26;;;;;;;7.05;4.03;;;;;;;23.51;43.32;101420.41;5092217;28;20036;-60
2022/05/16 08:00:55;;;;;;;10.40;3.58;;;;;;;23.52;43.18;101411.28;5091778;28;20043;-60
2022/05/16 08:03:24;;;;;;;8.25;4.55;;;;;;;23.53;43.66;101426.50;5090772;28;20063;-61
2022/05/16 08:05:51;;;;;;;11.48;3.13;;;;;;;23.54;43.21;101432.75;5092591;28;20067;-59
2022/05/16 08:11:03;;;;;;;12.82;3.50;;;;;;;23.55;43.48;101439.84;5092521;28;20059;-60
2022/05/16 08:13:31;;;;;;;7.47;3.58;;;;;;;23.55;43.54;101443.38;5090755;28;20411;-59
2022/05/16 08:15:58;;;;;;;5.00;3.15;;;;;;;23.55;43.14;101446.09;5088610;28;20050;-60
2022/05/16 08:18:25;;;;;;;8.95;3.35;;;;;;;23.56;43.37;101453.22;5090327;28;20043;-60
2022/05/16 08:20:52;;;;;;;12.98;4.00;;;;;;;23.57;43.17;101456.75;5087695;28;20048;-59
2022/05/16 08:23:25;;;;;;;10.63;3.05;;;;;;;23.57;43.16;101465.72;5084766;28;20319;-60
2022/05/16 08:25:53;;;;;;;6.30;2.60;;;;;;;23.57;43.42;101465.72;5084306;28;20048;-60
2022/05/16 08:28:20;;;;;;;7.18;3.53;;;;;;;23.58;43.58;101470.09;5089004;28;20050;-60
2022/05/16 08:30:47;;;;;;;15.23;4.40;;;;;;;23.59;43.52;101468.22;5092191;28;20131;-60
2022/05/16 08:33:13;;;;;;;6.72;3.13;;;;;;;23.58;43.71;101472.81;5088880;28;20062;-60
2022/05/16 08:35:40;;;;;;;7.93;3.40;;;;;;;23.59;43.54;101473.66;5090478;28;20138;-60
2022/05/16 08:40:57;;;;;;;7.40;3.08;;;;;;;23.59;43.49;101489.88;5091368;28;20100;-59
2022/05/16 08:43:42;;;;;;;6.60;3.28;;;;;;;23.59;43.82;101474.47;5089725;28;20054;-60
2022/05/16 08:46:25;;;;;;;5.15;2.97;;;;;;;23.60;43.37;101476.19;5089856;28;20426;-61
2022/05/16 08:49:18;;;;;;;7.35;3.03;;;;;;;23.60;43.19;101473.50;5091208;28;20044;-61
2022/05/16 08:51:53;;;;;;;6.55;3.20;;;;;;;23.62;43.83;101467.88;5089028;28;20056;-60
2022/05/16 08:54:38;;;;;;;8.95;3.35;;;;;;;23.63;44.01;101469.56;5084295;28;20135;-60
2022/05/16 08:57:09;;;;;;;12.13;3.30;;;;;;;23.63;43.74;101473.13;5087384;28;20046;-60
2022/05/16 08:59:40;;;;;;;6.65;2.90;;;;;;;23.64;43.56;101474.00;5089216;28;20040;-60
2022/05/16 09:02:34;;;;;;;25.73;3.30;;;;;;;23.65;43.54;101478.38;5089946;28;20058;-60
2022/05/16 09:05:19;;;;;;;11.30;3.45;;;;;;;23.67;43.53;101472.81;5086059;28;20052;-60
2022/05/16 09:07:52;;;;;;;7.13;3.10;;;;;;;23.68;43.34;101480.78;5086131;28;20067;-62
2022/05/16 09:10:32;;;;;;;10.70;3.08;;;;;;;23.70;43.89;101477.88;5089285;28;20066;-60
2022/05/16 09:13:16;;;;;;;4.07;2.58;;;;;;;23.72;44.28;101481.22;5084364;28;20135;-60
2022/05/16 09:15:55;;;;;;;5.90;3.08;;;;;;;23.73;44.01;101475.66;5088193;28;20385;-60
2022/05/16 09:18:44;;;;;;;10.43;2.88;;;;;;;23.75;44.31;101470.91;5089481;28;20298;-61
2022/05/16 09:21:17;;;;;;;8.48;3.58;;;;;;;23.78;43.81;101461.59;5089323;28;20150;-59
2022/05/16 09:23:58;;;;;;;9.68;3.50;;;;;;;23.81;44.09;101461.25;5062132;28;20120;-61
2022/05/16 09:26:57;;;;;;;12.15;3.65;;;;;;;23.84;43.95;101467.16;5089427;28;20134;-61
2022/05/16 09:29:31;;;;;;;15.82;3.58;;;;;;;23.90;43.98;101462.88;5073043;28;20126;-61
2022/05/16 09:32:11;;;;;;;10.18;3.58;;;;;;;23.94;43.77;101456.09;5090263;28;20054;-60
2022/05/16 09:34:37;;;;;;;8.90;3.88;;;;;;;23.98;44.56;101454.72;5085216;28;20040;-60
2022/05/16 09:37:05;;;;;;;8.45;3.60;;;;;;;24.01;44.18;101459.78;5083220;28;20063;-60
2022/05/16 09:39:31;;;;;;;6.82;3.05;;;;;;;24.07;44.45;101458.22;5091305;28;20066;-60
2022/05/16 09:42:14;;;;;;;10.93;3.30;;;;;;;24.08;44.12;101454.47;5097129;28;20364;-60
2022/05/16 09:45:02;;;;;;;10.63;3.60;;;;;;;24.13;44.04;101454.81;5093606;28;20044;-61
2022/05/16 09:47:29;;;;;;;7.22;3.03;;;;;;;24.15;44.35;101458.16;5089439;28;20408;-60
2022/05/16 09:50:24;;;;;;;12.05;4.15;;;;;;;24.18;44.57;101457.81;5094900;28;20058;-61
2022/05/16 09:53:10;;;;;;;7.57;2.70;;;;;;;24.18;43.79;101479.47;5091827;28;20443;-59
2022/05/16 09:56:12;;;;;;;8.68;2.55;;;;;;;24.21;43.84;101494.53;5091810;28;20429;-60
2022/05/16 09:58:54;;;;;;;7.38;2.85;;;;;;;24.25;44.42;101510.25;5079046;28;20054;-61
2022/05/16 10:01:37;;;;;;;9.77;3.35;;;;;;;24.27;43.87;101515.47;5095521;28;20131;-61
2022/05/16 10:04:20;;;;;;;4.60;2.50;;;;;;;24.28;43.69;101525.28;5095694;28;20124;-61
2022/05/16 10:07:02;;;;;;;10.48;2.92;;;;;;;24.28;44.76;101520.75;5096798;28;20748;-63
2022/05/16 10:09:40;;;;;;;5.47;2.50;;;;;;;24.30;43.87;101525.97;5096590;28;20098;-60
2022/05/16 10:12:09;;;;;;;7.03;3.08;;;;;;;24.31;43.92;101530.34;5088769;28;20051;-60
2022/05/16 10:14:37;;;;;;;6.30;2.63;;;;;;;24.30;44.54;101528.69;5094124;28;20040;-62
2022/05/16 10:17:07;;;;;;;6.35;3.00;;;;;;;24.30;43.78;101524.09;5093479;28;20442;-60
2022/05/16 10:19:35;;;;;;;5.55;2.75;;;;;;;24.31;44.67;101527.66;5093907;28;20048;-61
2022/05/16 10:22:17;;;;;;;6.10;2.72;;;;;;;24.30;44.36;101532.22;5090065;28;20062;-60
2022/05/16 10:24:50;;;;;;;8.30;3.00;;;;;;;24.32;44.26;101534.75;5094875;28;20036;-61
2022/05/16 10:27:31;;;;;;;4.78;2.80;;;;;;;24.31;43.99;101528.47;5091154;28;20043;-61
2022/05/16 10:30:05;;;;;;;6.85;3.25;;;;;;;24.31;44.49;101538.47;5089967;28;20130;-61
2022/05/16 10:35:33;;;;;;;4.45;2.90;;;;;;;24.32;44.38;101556.41;5096506;28;20775;-60
2022/05/16 10:38:07;;;;;;;5.20;2.70;;;;;;;24.31;45.12;101566.41;5092254;28;20040;-61
2022/05/16 10:40:41;;;;;;;7.97;2.83;;;;;;;24.30;45.32;101563.91;5096078;28;20195;-62
2022/05/16 10:43:15;;;;;;;;;;;;;;;24.29;44.72;101576.59;5091611;28;20055;-61
2022/05/16 10:45:49;;;;;;;10.32;3.63;;;;;;;24.31;45.35;101585.38;5087458;28;20018;-62
2022/05/16 10:48:41;;;;;;;5.30;3.35;;;;;;;24.30;45.59;101609.97;5094824;28;20058;-60
2022/05/16 10:51:13;;;;;;;9.10;3.33;;;;;;;24.29;45.23;101638.06;5089898;28;20082;-60
2022/05/16 10:54:05;;;;;;;7.18;2.35;;;;;;;24.29;45.80;101646.19;5089154;28;20048;-60
2022/05/16 10:56:58;;;;;;;6.13;3.08;;;;;;;24.27;47.22;101642.81;5087290;28;20441;-60
2022/05/16 10:59:36;;;;;;;12.65;3.22;;;;;;;24.28;46.93;101639.06;5085817;28;20044;-61
2022/05/16 11:02:21;;;;;;;11.18;3.15;;;;;;;24.25;49.76;101631.31;5092313;28;20450;-60
2022/05/16 11:05:15;;;;;;;10.05;3.33;;;;;;;24.23;49.78;101615.22;5090052;28;20040;-60
2022/05/16 11:08:08;;;;;;;13.02;3.20;;;;;;;24.22;49.52;101604.56;5091295;28;20301;-60
2022/05/16 11:10:55;;;;;;;9.68;3.30;;;;;;;24.19;50.49;101618.47;5091218;28;20066;-61
2022/05/16 11:13:35;;;;;;;10.48;2.65;;;;;;;24.19;49.56;101622.00;5088816;28;20054;-59
2022/05/16 11:16:18;;;;;;;7.80;3.33;;;;;;;24.17;50.59;101623.22;5088167;28;20332;-60
2022/05/16 11:18:47;;;;;;;9.57;3.60;;;;;;;24.17;51.10;101623.22;5087334;28;20093;-61
2022/05/16 11:21:40;;;;;;;8.68;3.05;;;;;;;24.13;52.04;101637.13;5092506;28;20047;-61
2022/05/16 11:24:24;;;;;;;8.45;3.50;;;;;;;24.11;52.79;101633.72;5090376;28;20046;-61
2022/05/16 11:27:06;;;;;;;6.93;3.38;;;;;;;24.09;52.63;101629.53;5092049;28;20480;-61
2022/05/16 11:30:02;;;;;;;9.75;4.30;;;;;;;24.08;52.86;101635.94;5090054;28;20323;-61
2022/05/16 11:32:45;;;;;;;11.18;4.18;;;;;;;24.06;53.26;101633.41;5088864;28;20051;-61
2022/05/16 11:35:27;;;;;;;8.93;3.33;;;;;;;24.06;52.67;101637.97;5087313;28;20137;-61
2022/05/16 11:38:04;;;;;;;5.78;3.40;;;;;;;24.05;53.39;101642.56;5083228;28;20040;-61
2022/05/16 11:40:46;;;;;;;9.90;4.10;;;;;;;24.06;52.69;101643.41;5086425;28;20459;-61
2022/05/16 11:43:24;;;;;;;8.43;3.58;;;;;;;24.04;53.28;101640.88;5083024;28;20473;-61
2022/05/16 11:45:59;;;;;;;11.13;3.30;;;;;;;24.05;53.69;101645.28;5090679;28;20126;-61
2022/05/16 11:48:55;;;;;;;8.00;3.40;;;;;;;24.05;53.38;101639.84;5087272;28;20159;-60
2022/05/16 11:51:56;;;;;;;11.45;3.50;;;;;;;24.07;52.63;101647.78;5084894;28;20048;-62
2022/05/16 11:54:28;;;;;;;12.68;4.15;;;;;;;24.07;52.69;101656.75;5088722;28;20330;-61
2022/05/16 12:02:43;;;;;;;11.10;6.00;;;;;;;24.08;52.80;101661.19;5088345;28;20052;-61
2022/05/16 12:05:28;;;;;;;13.35;6.00;;;;;;;24.08;53.11;101669.31;5085858;28;20046;-61
2022/05/16 12:08:15;;;;;;;13.52;8.02;;;;;;;24.09;53.40;101668.28;5082448;28;20067;-63
2022/05/16 12:11:10;;;;;;;15.18;8.63;;;;;;;24.09;53.34;101671.00;5084758;28;20055;-61
2022/05/16 12:13:59;;;;;;;14.98;9.13;;;;;;;24.09;53.50;101679.13;5079259;28;20052;-61
2022/05/16 12:16:28;;;;;;;21.05;9.20;;;;;;;24.10;53.02;101685.38;5081380;28;20454;-60